Fort Lauderdale, Florida
Current Conditions -  °F | °C
As of 12:53 AM on Tuesday 21 Oct 2014 (Local Time) from KFLL Reporting Station
Broken Clouds Broken Clouds  
Wind Chill: 77°   Ceiling: 7500
Heat Index: 79°   Visibility: 10mi
Dew Point: 70°   Wind: 0mph
Humidity: 79%   Direction: NA
Pressure: 29.95"   Gusts: NA
Location:  26.12°N, 80.15°W
Report Text: KFLL 210453Z 00000KT 10SM FEW038 SCT060 BKN075 BKN150 25/21 A2995 RMK AO2 SLP143 T02500211 403000250
Loading
Personal Weather Stations






























Interactive Weather Map
Tropical Storm Tracking
New forecast layout! Learn more

10-Day Weather Forecast

Advertisements
Track Severe Weather on mobile